sensor_id;sensor_type;location;lat;lon;timestamp;temperature;humidity
12289;DHT22;6207;49.308;7.336;2023-03-20T00:01:59;7.80;99.90
12289;DHT22;6207;49.308;7.336;2023-03-20T00:04:26;7.80;99.90
12289;DHT22;6207;49.308;7.336;2023-03-20T00:06:55;7.90;99.90
12289;DHT22;6207;49.308;7.336;2023-03-20T00:09:21;7.90;99.90
12289;DHT22;6207;49.308;7.336;2023-03-20T00:11:50;7.90;99.90
12289;DHT22;6207;49.308;7.336;2023-03-20T00:14:21;7.90;99.90
12289;DHT22;6207;49.308;7.336;2023-03-20T00:16:50;7.90;99.90
12289;DHT22;6207;49.308;7.336;2023-03-20T00:19:19;8.00;99.90
12289;DHT22;6207;49.308;7.336;2023-03-20T00:21:49;8.00;99.90
12289;DHT22;6207;49.308;7.336;2023-03-20T00:24:17;8.00;99.90
12289;DHT22;6207;49.308;7.336;2023-03-20T00:26:44;8.00;99.90
12289;DHT22;6207;49.308;7.336;2023-03-20T00:31:48;8.00;99.90
12289;DHT22;6207;49.308;7.336;2023-03-20T00:34:17;8.00;99.90
12289;DHT22;6207;49.308;7.336;2023-03-20T00:36:45;8.00;99.90
12289;DHT22;6207;49.308;7.336;2023-03-20T00:39:12;8.00;99.90
12289;DHT22;6207;49.308;7.336;2023-03-20T00:41:57;8.00;99.90
12289;DHT22;6207;49.308;7.336;2023-03-20T00:44:29;8.00;99.90
12289;DHT22;6207;49.308;7.336;2023-03-20T00:46:59;8.00;99.90
12289;DHT22;6207;49.308;7.336;2023-03-20T00:49:29;8.10;99.90
12289;DHT22;6207;49.308;7.336;2023-03-20T00:51:58;8.10;99.90
12289;DHT22;6207;49.308;7.336;2023-03-20T00:54:25;8.10;99.90
12289;DHT22;6207;49.308;7.336;2023-03-20T00:56:59;8.10;99.90
12289;DHT22;6207;49.308;7.336;2023-03-20T00:59:33;8.00;99.90
12289;DHT22;6207;49.308;7.336;2023-03-20T01:02:01;8.10;99.90
12289;DHT22;6207;49.308;7.336;2023-03-20T01:04:34;8.10;99.90
12289;DHT22;6207;49.308;7.336;2023-03-20T01:07:02;8.10;99.90
12289;DHT22;6207;49.308;7.336;2023-03-20T01:09:29;8.10;99.90
12289;DHT22;6207;49.308;7.336;2023-03-20T01:11:57;8.10;99.90
12289;DHT22;6207;49.308;7.336;2023-03-20T01:14:24;8.10;99.90
12289;DHT22;6207;49.308;7.336;2023-03-20T01:16:51;8.10;99.90
12289;DHT22;6207;49.308;7.336;2023-03-20T01:19:19;8.10;99.90
12289;DHT22;6207;49.308;7.336;2023-03-20T01:21:46;8.10;99.90
12289;DHT22;6207;49.308;7.336;2023-03-20T01:24:13;8.10;99.90
12289;DHT22;6207;49.308;7.336;2023-03-20T01:26:41;8.10;99.90
12289;DHT22;6207;49.308;7.336;2023-03-20T01:31:47;8.10;99.90
12289;DHT22;6207;49.308;7.336;2023-03-20T01:34:14;8.10;99.90
12289;DHT22;6207;49.308;7.336;2023-03-20T01:36:56;8.10;99.90
12289;DHT22;6207;49.308;7.336;2023-03-20T01:39:31;8.20;99.90
12289;DHT22;6207;49.308;7.336;2023-03-20T01:41:59;8.10;99.90
12289;DHT22;6207;49.308;7.336;2023-03-20T01:44:31;8.20;99.90
12289;DHT22;6207;49.308;7.336;2023-03-20T01:47:00;8.20;99.90
12289;DHT22;6207;49.308;7.336;2023-03-20T01:51:55;8.20;99.90
12289;DHT22;6207;49.308;7.336;2023-03-20T01:54:26;8.20;99.90
12289;DHT22;6207;49.308;7.336;2023-03-20T01:57:16;8.20;99.90
12289;DHT22;6207;49.308;7.336;2023-03-20T01:59:51;8.20;99.90
12289;DHT22;6207;49.308;7.336;2023-03-20T02:02:25;8.20;99.90
12289;DHT22;6207;49.308;7.336;2023-03-20T02:04:57;8.20;99.90
12289;DHT22;6207;49.308;7.336;2023-03-20T02:07:25;8.20;99.90
12289;DHT22;6207;49.308;7.336;2023-03-20T02:09:52;8.20;99.90
12289;DHT22;6207;49.308;7.336;2023-03-20T02:12:19;8.20;99.90
12289;DHT22;6207;49.308;7.336;2023-03-20T02:14:47;8.20;99.90
12289;DHT22;6207;49.308;7.336;2023-03-20T02:17:14;8.20;99.90
12289;DHT22;6207;49.308;7.336;2023-03-20T02:42:38;8.30;99.90
12289;DHT22;6207;49.308;7.336;2023-03-20T02:45:30;8.30;99.90
12289;DHT22;6207;49.308;7.336;2023-03-20T02:53:53;8.30;99.90
12289;DHT22;6207;49.308;7.336;2023-03-20T02:56:42;8.30;99.90
12289;DHT22;6207;49.308;7.336;2023-03-20T03:02:04;8.30;99.90
12289;DHT22;6207;49.308;7.336;2023-03-20T03:04:37;8.30;99.90
12289;DHT22;6207;49.308;7.336;2023-03-20T03:07:06;8.30;99.90
12289;DHT22;6207;49.308;7.336;2023-03-20T03:09:48;8.30;99.90
12289;DHT22;6207;49.308;7.336;2023-03-20T03:12:28;8.30;99.90
12289;DHT22;6207;49.308;7.336;2023-03-20T03:15:02;8.30;99.90
12289;DHT22;6207;49.308;7.336;2023-03-20T03:17:32;8.30;99.90
12289;DHT22;6207;49.308;7.336;2023-03-20T03:20:11;8.30;99.90
12289;DHT22;6207;49.308;7.336;2023-03-20T03:22:40;8.30;99.90
12289;DHT22;6207;49.308;7.336;2023-03-20T03:25:09;8.30;99.90
12289;DHT22;6207;49.308;7.336;2023-03-20T03:27:40;8.30;99.90
12289;DHT22;6207;49.308;7.336;2023-03-20T03:33:04;8.30;99.90
12289;DHT22;6207;49.308;7.336;2023-03-20T03:35:33;8.30;99.90
12289;DHT22;6207;49.308;7.336;2023-03-20T03:38:28;8.20;99.90
12289;DHT22;6207;49.308;7.336;2023-03-20T03:43:36;8.30;99.90
12289;DHT22;6207;49.308;7.336;2023-03-20T03:46:11;8.30;99.90
12289;DHT22;6207;49.308;7.336;2023-03-20T03:48:43;8.20;99.90
12289;DHT22;6207;49.308;7.336;2023-03-20T03:51:15;8.20;99.90
12289;DHT22;6207;49.308;7.336;2023-03-20T03:53:46;8.20;99.90
12289;DHT22;6207;49.308;7.336;2023-03-20T03:56:18;8.20;99.90
12289;DHT22;6207;49.308;7.336;2023-03-20T03:58:49;8.20;99.90
12289;DHT22;6207;49.308;7.336;2023-03-20T04:01:19;8.20;99.90
12289;DHT22;6207;49.308;7.336;2023-03-20T04:03:53;8.20;99.90
12289;DHT22;6207;49.308;7.336;2023-03-20T04:06:21;8.20;99.90
12289;DHT22;6207;49.308;7.336;2023-03-20T04:08:48;8.20;99.90
12289;DHT22;6207;49.308;7.336;2023-03-20T04:11:17;8.20;99.90
12289;DHT22;6207;49.308;7.336;2023-03-20T04:13:47;8.20;99.90
12289;DHT22;6207;49.308;7.336;2023-03-20T04:16:15;8.20;99.90
12289;DHT22;6207;49.308;7.336;2023-03-20T04:18:43;8.20;99.90
12289;DHT22;6207;49.308;7.336;2023-03-20T04:21:11;8.20;99.90
12289;DHT22;6207;49.308;7.336;2023-03-20T04:23:38;8.20;99.90
12289;DHT22;6207;49.308;7.336;2023-03-20T04:26:05;8.20;99.90
12289;DHT22;6207;49.308;7.336;2023-03-20T04:28:32;8.20;99.90
12289;DHT22;6207;49.308;7.336;2023-03-20T04:30:59;8.20;99.90
12289;DHT22;6207;49.308;7.336;2023-03-20T04:33:27;8.20;99.90
12289;DHT22;6207;49.308;7.336;2023-03-20T04:35:55;8.20;99.90
12289;DHT22;6207;49.308;7.336;2023-03-20T04:38:22;8.20;99.90
12289;DHT22;6207;49.308;7.336;2023-03-20T04:40:49;8.20;99.90
12289;DHT22;6207;49.308;7.336;2023-03-20T04:43:16;8.40;99.90
12289;DHT22;6207;49.308;7.336;2023-03-20T04:45:43;8.20;99.90
12289;DHT22;6207;49.308;7.336;2023-03-20T04:48:10;8.20;99.90
12289;DHT22;6207;49.308;7.336;2023-03-20T04:50:36;8.20;99.90
12289;DHT22;6207;49.308;7.336;2023-03-20T04:53:03;8.20;99.90
12289;DHT22;6207;49.308;7.336;2023-03-20T04:55:30;8.20;99.90
12289;DHT22;6207;49.308;7.336;2023-03-20T04:57:57;8.20;99.90
12289;DHT22;6207;49.308;7.336;2023-03-20T05:00:24;8.20;99.90
12289;DHT22;6207;49.308;7.336;2023-03-20T05:02:50;8.20;99.90
12289;DHT22;6207;49.308;7.336;2023-03-20T05:05:17;8.20;99.90
12289;DHT22;6207;49.308;7.336;2023-03-20T05:07:44;8.20;99.90
12289;DHT22;6207;49.308;7.336;2023-03-20T05:10:11;8.20;99.90
12289;DHT22;6207;49.308;7.336;2023-03-20T05:12:38;8.20;99.90
12289;DHT22;6207;49.308;7.336;2023-03-20T05:15:05;8.20;99.90
12289;DHT22;6207;49.308;7.336;2023-03-20T05:17:31;8.20;99.90
12289;DHT22;6207;49.308;7.336;2023-03-20T05:19:58;8.10;99.90
12289;DHT22;6207;49.308;7.336;2023-03-20T05:22:25;8.20;99.90
12289;DHT22;6207;49.308;7.336;2023-03-20T05:24:52;8.20;99.90
12289;DHT22;6207;49.308;7.336;2023-03-20T05:27:18;8.20;99.90
12289;DHT22;6207;49.308;7.336;2023-03-20T05:29:45;8.20;99.90
12289;DHT22;6207;49.308;7.336;2023-03-20T05:32:12;8.20;99.90
12289;DHT22;6207;49.308;7.336;2023-03-20T05:34:39;8.20;99.90
12289;DHT22;6207;49.308;7.336;2023-03-20T05:37:05;8.20;99.90
12289;DHT22;6207;49.308;7.336;2023-03-20T05:39:32;8.20;99.90
12289;DHT22;6207;49.308;7.336;2023-03-20T05:41:59;8.20;99.90
12289;DHT22;6207;49.308;7.336;2023-03-20T05:44:26;8.20;99.90
12289;DHT22;6207;49.308;7.336;2023-03-20T05:46:52;8.20;99.90
12289;DHT22;6207;49.308;7.336;2023-03-20T05:49:19;8.20;99.90
12289;DHT22;6207;49.308;7.336;2023-03-20T05:51:46;8.20;99.90
12289;DHT22;6207;49.308;7.336;2023-03-20T05:54:12;8.20;99.90
12289;DHT22;6207;49.308;7.336;2023-03-20T05:56:39;8.20;99.90
12289;DHT22;6207;49.308;7.336;2023-03-20T05:59:06;8.10;99.90
12289;DHT22;6207;49.308;7.336;2023-03-20T06:01:33;8.20;99.90
12289;DHT22;6207;49.308;7.336;2023-03-20T06:03:59;8.10;99.90
12289;DHT22;6207;49.308;7.336;2023-03-20T06:06:26;8.10;99.90
12289;DHT22;6207;49.308;7.336;2023-03-20T06:08:53;8.10;99.90
12289;DHT22;6207;49.308;7.336;2023-03-20T06:11:19;8.10;99.90
12289;DHT22;6207;49.308;7.336;2023-03-20T06:13:46;8.00;99.90
12289;DHT22;6207;49.308;7.336;2023-03-20T06:16:13;8.00;99.90
12289;DHT22;6207;49.308;7.336;2023-03-20T06:18:40;8.00;99.90
12289;DHT22;6207;49.308;7.336;2023-03-20T06:21:06;8.00;99.90
12289;DHT22;6207;49.308;7.336;2023-03-20T06:23:33;8.00;99.90
12289;DHT22;6207;49.308;7.336;2023-03-20T06:26:00;8.00;99.90
12289;DHT22;6207;49.308;7.336;2023-03-20T06:28:26;8.00;99.90
12289;DHT22;6207;49.308;7.336;2023-03-20T06:30:53;8.00;99.90
12289;DHT22;6207;49.308;7.336;2023-03-20T06:33:20;8.10;99.90
12289;DHT22;6207;49.308;7.336;2023-03-20T06:35:47;8.00;99.90
12289;DHT22;6207;49.308;7.336;2023-03-20T06:38:14;8.00;99.90
12289;DHT22;6207;49.308;7.336;2023-03-20T06:40:41;7.90;99.90
12289;DHT22;6207;49.308;7.336;2023-03-20T06:43:08;7.90;99.90
12289;DHT22;6207;49.308;7.336;2023-03-20T06:45:38;7.90;99.90
12289;DHT22;6207;49.308;7.336;2023-03-20T06:48:07;7.80;99.90
12289;DHT22;6207;49.308;7.336;2023-03-20T06:50:33;7.80;99.90
12289;DHT22;6207;49.308;7.336;2023-03-20T06:53:00;7.80;99.90
12289;DHT22;6207;49.308;7.336;2023-03-20T06:55:27;7.80;99.90
12289;DHT22;6207;49.308;7.336;2023-03-20T06:57:54;7.80;99.90
12289;DHT22;6207;49.308;7.336;2023-03-20T07:00:21;7.80;99.90
12289;DHT22;6207;49.308;7.336;2023-03-20T07:02:47;7.80;99.90
12289;DHT22;6207;49.308;7.336;2023-03-20T07:05:15;7.80;99.90
12289;DHT22;6207;49.308;7.336;2023-03-20T07:07:43;7.80;99.90
12289;DHT22;6207;49.308;7.336;2023-03-20T07:10:10;7.80;99.90
12289;DHT22;6207;49.308;7.336;2023-03-20T07:12:38;7.80;99.90
12289;DHT22;6207;49.308;7.336;2023-03-20T07:15:05;7.80;99.90
12289;DHT22;6207;49.308;7.336;2023-03-20T07:17:32;7.80;99.90
12289;DHT22;6207;49.308;7.336;2023-03-20T07:19:58;7.80;99.90
12289;DHT22;6207;49.308;7.336;2023-03-20T07:22:27;7.80;99.90
12289;DHT22;6207;49.308;7.336;2023-03-20T07:24:53;7.80;99.90
12289;DHT22;6207;49.308;7.336;2023-03-20T07:27:20;7.90;99.90
12289;DHT22;6207;49.308;7.336;2023-03-20T07:29:48;7.80;99.90
12289;DHT22;6207;49.308;7.336;2023-03-20T07:32:14;7.90;99.90
12289;DHT22;6207;49.308;7.336;2023-03-20T07:34:42;8.00;99.90
12289;DHT22;6207;49.308;7.336;2023-03-20T07:37:09;8.00;99.90
12289;DHT22;6207;49.308;7.336;2023-03-20T07:39:36;8.00;99.90
12289;DHT22;6207;49.308;7.336;2023-03-20T07:42:03;8.00;99.90
12289;DHT22;6207;49.308;7.336;2023-03-20T07:44:30;7.80;99.90
12289;DHT22;6207;49.308;7.336;2023-03-20T07:46:56;7.80;99.90
12289;DHT22;6207;49.308;7.336;2023-03-20T07:49:23;7.70;99.90
12289;DHT22;6207;49.308;7.336;2023-03-20T07:51:51;7.80;99.90
12289;DHT22;6207;49.308;7.336;2023-03-20T07:54:19;7.80;99.90
12289;DHT22;6207;49.308;7.336;2023-03-20T07:56:46;7.80;99.90
12289;DHT22;6207;49.308;7.336;2023-03-20T07:59:13;7.90;99.90
12289;DHT22;6207;49.308;7.336;2023-03-20T08:01:40;8.00;99.90
12289;DHT22;6207;49.308;7.336;2023-03-20T08:04:07;8.00;99.90
12289;DHT22;6207;49.308;7.336;2023-03-20T08:06:34;8.00;99.90
12289;DHT22;6207;49.308;7.336;2023-03-20T08:09:02;8.10;99.90
12289;DHT22;6207;49.308;7.336;2023-03-20T08:11:28;8.10;99.90
12289;DHT22;6207;49.308;7.336;2023-03-20T08:13:58;8.40;99.90
12289;DHT22;6207;49.308;7.336;2023-03-20T08:16:24;9.10;99.90
12289;DHT22;6207;49.308;7.336;2023-03-20T08:18:51;9.50;99.90
12289;DHT22;6207;49.308;7.336;2023-03-20T08:21:18;9.40;99.90
12289;DHT22;6207;49.308;7.336;2023-03-20T08:23:45;9.30;99.90
12289;DHT22;6207;49.308;7.336;2023-03-20T08:26:12;9.20;99.90
12289;DHT22;6207;49.308;7.336;2023-03-20T08:28:39;9.30;99.90
12289;DHT22;6207;49.308;7.336;2023-03-20T08:31:15;9.30;99.90
12289;DHT22;6207;49.308;7.336;2023-03-20T08:33:44;9.20;99.90
12289;DHT22;6207;49.308;7.336;2023-03-20T08:36:12;9.70;99.90
12289;DHT22;6207;49.308;7.336;2023-03-20T08:38:41;9.80;99.90
12289;DHT22;6207;49.308;7.336;2023-03-20T08:41:08;10.40;99.90
12289;DHT22;6207;49.308;7.336;2023-03-20T08:43:34;11.20;99.90
12289;DHT22;6207;49.308;7.336;2023-03-20T08:46:02;12.00;99.90
12289;DHT22;6207;49.308;7.336;2023-03-20T08:48:28;12.20;99.90
12289;DHT22;6207;49.308;7.336;2023-03-20T08:50:55;11.10;99.90
12289;DHT22;6207;49.308;7.336;2023-03-20T08:53:22;10.60;99.90
12289;DHT22;6207;49.308;7.336;2023-03-20T08:55:50;13.00;99.90
12289;DHT22;6207;49.308;7.336;2023-03-20T08:58:18;13.30;99.90
12289;DHT22;6207;49.308;7.336;2023-03-20T09:00:45;13.70;99.90
12289;DHT22;6207;49.308;7.336;2023-03-20T09:03:13;12.80;99.90
12289;DHT22;6207;49.308;7.336;2023-03-20T09:05:43;13.20;99.90
12289;DHT22;6207;49.308;7.336;2023-03-20T09:08:11;14.40;99.90
12289;DHT22;6207;49.308;7.336;2023-03-20T09:10:37;14.60;99.90
12289;DHT22;6207;49.308;7.336;2023-03-20T09:13:06;15.60;99.90
12289;DHT22;6207;49.308;7.336;2023-03-20T09:15:53;15.60;99.90
12289;DHT22;6207;49.308;7.336;2023-03-20T09:18:20;14.50;99.90
12289;DHT22;6207;49.308;7.336;2023-03-20T09:20:47;14.90;99.90
12289;DHT22;6207;49.308;7.336;2023-03-20T09:23:14;13.80;99.90
12289;DHT22;6207;49.308;7.336;2023-03-20T09:25:41;14.50;99.90
12289;DHT22;6207;49.308;7.336;2023-03-20T09:28:08;14.60;99.90
12289;DHT22;6207;49.308;7.336;2023-03-20T09:30:35;14.00;99.90
12289;DHT22;6207;49.308;7.336;2023-03-20T09:33:02;12.90;99.90
12289;DHT22;6207;49.308;7.336;2023-03-20T09:35:29;14.80;99.90
12289;DHT22;6207;49.308;7.336;2023-03-20T09:37:56;16.10;99.90
12289;DHT22;6207;49.308;7.336;2023-03-20T09:40:27;16.40;99.90
12289;DHT22;6207;49.308;7.336;2023-03-20T09:43:04;15.00;99.90
12289;DHT22;6207;49.308;7.336;2023-03-20T09:46:27;15.40;99.90
12289;DHT22;6207;49.308;7.336;2023-03-20T09:48:52;13.00;99.90
12289;DHT22;6207;49.308;7.336;2023-03-20T09:51:41;13.60;99.90
12289;DHT22;6207;49.308;7.336;2023-03-20T09:54:30;13.10;99.90
12289;DHT22;6207;49.308;7.336;2023-03-20T09:57:24;12.30;99.90
12289;DHT22;6207;49.308;7.336;2023-03-20T09:59:58;12.00;99.90
12289;DHT22;6207;49.308;7.336;2023-03-20T10:02:47;12.50;99.90
12289;DHT22;6207;49.308;7.336;2023-03-20T10:05:28;12.50;99.90
12289;DHT22;6207;49.308;7.336;2023-03-20T10:07:58;11.60;99.90
12289;DHT22;6207;49.308;7.336;2023-03-20T10:18:45;12.60;99.90
12289;DHT22;6207;49.308;7.336;2023-03-20T10:21:20;11.80;99.90
12289;DHT22;6207;49.308;7.336;2023-03-20T10:24:01;11.40;99.90
12289;DHT22;6207;49.308;7.336;2023-03-20T10:26:32;11.60;99.90
12289;DHT22;6207;49.308;7.336;2023-03-20T10:29:01;11.60;99.90
12289;DHT22;6207;49.308;7.336;2023-03-20T10:31:43;11.50;99.90
12289;DHT22;6207;49.308;7.336;2023-03-20T10:42:40;11.60;99.90
12289;DHT22;6207;49.308;7.336;2023-03-20T10:45:36;11.40;99.90
12289;DHT22;6207;49.308;7.336;2023-03-20T10:48:20;11.60;99.90
12289;DHT22;6207;49.308;7.336;2023-03-20T10:50:58;11.80;99.90
12289;DHT22;6207;49.308;7.336;2023-03-20T10:53:29;11.70;99.90
12289;DHT22;6207;49.308;7.336;2023-03-20T10:56:01;11.60;99.90
12289;DHT22;6207;49.308;7.336;2023-03-20T10:58:34;11.50;99.90
12289;DHT22;6207;49.308;7.336;2023-03-20T11:01:03;11.50;99.90
12289;DHT22;6207;49.308;7.336;2023-03-20T11:03:31;11.40;99.90
12289;DHT22;6207;49.308;7.336;2023-03-20T11:06:02;11.70;99.90
12289;DHT22;6207;49.308;7.336;2023-03-20T11:08:39;11.60;99.90
12289;DHT22;6207;49.308;7.336;2023-03-20T11:11:07;12.00;99.90
12289;DHT22;6207;49.308;7.336;2023-03-20T11:18:48;11.60;99.90
12289;DHT22;6207;49.308;7.336;2023-03-20T11:21:21;11.70;99.90
12289;DHT22;6207;49.308;7.336;2023-03-20T11:23:49;11.80;99.90
12289;DHT22;6207;49.308;7.336;2023-03-20T11:26:35;12.00;99.90
12289;DHT22;6207;49.308;7.336;2023-03-20T11:29:06;12.40;99.90
12289;DHT22;6207;49.308;7.336;2023-03-20T11:31:36;12.10;99.90
12289;DHT22;6207;49.308;7.336;2023-03-20T11:34:08;11.70;99.90
12289;DHT22;6207;49.308;7.336;2023-03-20T11:36:37;11.50;99.90
12289;DHT22;6207;49.308;7.336;2023-03-20T11:44:30;11.10;99.90
12289;DHT22;6207;49.308;7.336;2023-03-20T11:47:10;11.30;99.90
12289;DHT22;6207;49.308;7.336;2023-03-20T11:49:51;11.30;99.90
12289;DHT22;6207;49.308;7.336;2023-03-20T11:52:21;11.10;99.90
12289;DHT22;6207;49.308;7.336;2023-03-20T11:54:56;11.10;99.90
12289;DHT22;6207;49.308;7.336;2023-03-20T11:57:44;10.80;99.90
12289;DHT22;6207;49.308;7.336;2023-03-20T12:00:19;11.10;99.90
12289;DHT22;6207;49.308;7.336;2023-03-20T12:02:47;11.00;99.90
12289;DHT22;6207;49.308;7.336;2023-03-20T12:08:19;11.30;99.90
12289;DHT22;6207;49.308;7.336;2023-03-20T12:10:54;11.50;99.90
12289;DHT22;6207;49.308;7.336;2023-03-20T12:13:31;11.60;99.90
12289;DHT22;6207;49.308;7.336;2023-03-20T12:16:11;11.40;99.90
12289;DHT22;6207;49.308;7.336;2023-03-20T12:21:10;11.50;99.90
12289;DHT22;6207;49.308;7.336;2023-03-20T12:24:10;11.70;99.90
12289;DHT22;6207;49.308;7.336;2023-03-20T12:29:37;11.80;99.90
12289;DHT22;6207;49.308;7.336;2023-03-20T12:34:55;11.70;99.90
12289;DHT22;6207;49.308;7.336;2023-03-20T12:37:23;11.40;99.90
12289;DHT22;6207;49.308;7.336;2023-03-20T12:39:51;11.70;99.90
12289;DHT22;6207;49.308;7.336;2023-03-20T12:42:42;11.60;99.90
12289;DHT22;6207;49.308;7.336;2023-03-20T12:45:20;11.60;99.90
12289;DHT22;6207;49.308;7.336;2023-03-20T12:50:31;11.50;99.90
12289;DHT22;6207;49.308;7.336;2023-03-20T12:56:20;11.70;99.90
12289;DHT22;6207;49.308;7.336;2023-03-20T12:59:00;11.70;99.90
12289;DHT22;6207;49.308;7.336;2023-03-20T13:01:36;11.40;99.90
12289;DHT22;6207;49.308;7.336;2023-03-20T13:12:29;11.70;99.90
12289;DHT22;6207;49.308;7.336;2023-03-20T13:17:49;11.80;99.90
12289;DHT22;6207;49.308;7.336;2023-03-20T13:23:27;11.90;99.90
12289;DHT22;6207;49.308;7.336;2023-03-20T13:26:24;11.50;99.90
12289;DHT22;6207;49.308;7.336;2023-03-20T13:29:17;11.10;99.90
12289;DHT22;6207;49.308;7.336;2023-03-20T13:32:17;11.10;99.90
12289;DHT22;6207;49.308;7.336;2023-03-20T13:34:54;11.00;99.90
12289;DHT22;6207;49.308;7.336;2023-03-20T13:37:42;10.90;99.90
12289;DHT22;6207;49.308;7.336;2023-03-20T13:40:26;11.10;99.90
12289;DHT22;6207;49.308;7.336;2023-03-20T13:42:58;11.20;99.90
12289;DHT22;6207;49.308;7.336;2023-03-20T13:45:34;11.10;99.90
12289;DHT22;6207;49.308;7.336;2023-03-20T13:50:51;11.10;99.90
12289;DHT22;6207;49.308;7.336;2023-03-20T13:53:53;10.80;99.90
12289;DHT22;6207;49.308;7.336;2023-03-20T14:02:20;10.90;99.90
12289;DHT22;6207;49.308;7.336;2023-03-20T14:04:54;11.10;99.90
12289;DHT22;6207;49.308;7.336;2023-03-20T14:07:32;10.90;99.90
12289;DHT22;6207;49.308;7.336;2023-03-20T14:12:56;10.90;99.90
12289;DHT22;6207;49.308;7.336;2023-03-20T14:15:33;10.80;99.90
12289;DHT22;6207;49.308;7.336;2023-03-20T14:18:26;10.60;99.90
12289;DHT22;6207;49.308;7.336;2023-03-20T14:20:57;10.70;99.90
12289;DHT22;6207;49.308;7.336;2023-03-20T14:23:38;10.80;99.90
12289;DHT22;6207;49.308;7.336;2023-03-20T14:28:56;10.90;99.90
12289;DHT22;6207;49.308;7.336;2023-03-20T14:40:28;11.10;99.90
12289;DHT22;6207;49.308;7.336;2023-03-20T14:42:39;10.90;99.90
12289;DHT22;6207;49.308;7.336;2023-03-20T14:48:07;10.70;99.90
12289;DHT22;6207;49.308;7.336;2023-03-20T14:53:39;10.70;99.90
12289;DHT22;6207;49.308;7.336;2023-03-20T14:56:10;10.60;99.90
12289;DHT22;6207;49.308;7.336;2023-03-20T14:59:00;10.60;99.90
12289;DHT22;6207;49.308;7.336;2023-03-20T15:04:22;10.80;99.90
12289;DHT22;6207;49.308;7.336;2023-03-20T15:07:14;10.70;99.90
12289;DHT22;6207;49.308;7.336;2023-03-20T15:09:47;10.80;99.90
12289;DHT22;6207;49.308;7.336;2023-03-20T15:12:19;10.60;99.90
12289;DHT22;6207;49.308;7.336;2023-03-20T15:14:55;10.50;99.90
12289;DHT22;6207;49.308;7.336;2023-03-20T15:17:45;10.50;99.90
12289;DHT22;6207;49.308;7.336;2023-03-20T15:20:22;10.60;99.90
12289;DHT22;6207;49.308;7.336;2023-03-20T15:22:54;10.80;99.90
12289;DHT22;6207;49.308;7.336;2023-03-20T15:25:30;10.70;99.90
12289;DHT22;6207;49.308;7.336;2023-03-20T15:27:57;10.60;99.90
12289;DHT22;6207;49.308;7.336;2023-03-20T15:30:24;10.60;99.90
12289;DHT22;6207;49.308;7.336;2023-03-20T15:32:53;10.70;99.90
12289;DHT22;6207;49.308;7.336;2023-03-20T15:35:22;10.80;99.90
12289;DHT22;6207;49.308;7.336;2023-03-20T15:37:50;10.70;99.90
12289;DHT22;6207;49.308;7.336;2023-03-20T15:40:29;10.50;99.90
12289;DHT22;6207;49.308;7.336;2023-03-20T15:43:26;10.50;99.90
12289;DHT22;6207;49.308;7.336;2023-03-20T15:45:55;10.60;99.90
12289;DHT22;6207;49.308;7.336;2023-03-20T15:48:46;10.40;99.90
12289;DHT22;6207;49.308;7.336;2023-03-20T15:51:15;10.40;99.90
12289;DHT22;6207;49.308;7.336;2023-03-20T15:53:45;10.40;99.90
12289;DHT22;6207;49.308;7.336;2023-03-20T15:56:15;10.50;99.90
12289;DHT22;6207;49.308;7.336;2023-03-20T15:58:47;10.50;99.90
12289;DHT22;6207;49.308;7.336;2023-03-20T16:01:22;10.50;99.90
12289;DHT22;6207;49.308;7.336;2023-03-20T16:03:51;10.50;99.90
12289;DHT22;6207;49.308;7.336;2023-03-20T16:06:20;10.50;99.90
12289;DHT22;6207;49.308;7.336;2023-03-20T16:09:01;10.60;99.90
12289;DHT22;6207;49.308;7.336;2023-03-20T16:11:39;10.70;99.90
12289;DHT22;6207;49.308;7.336;2023-03-20T16:14:21;10.80;99.90
12289;DHT22;6207;49.308;7.336;2023-03-20T16:16:50;10.80;99.90
12289;DHT22;6207;49.308;7.336;2023-03-20T16:19:18;10.80;99.90
12289;DHT22;6207;49.308;7.336;2023-03-20T16:21:55;10.70;99.90
12289;DHT22;6207;49.308;7.336;2023-03-20T16:24:29;10.50;99.90
12289;DHT22;6207;49.308;7.336;2023-03-20T16:27:00;10.50;99.90
12289;DHT22;6207;49.308;7.336;2023-03-20T16:29:31;10.50;99.90
12289;DHT22;6207;49.308;7.336;2023-03-20T16:32:06;10.40;99.90
12289;DHT22;6207;49.308;7.336;2023-03-20T16:34:35;10.30;99.90
12289;DHT22;6207;49.308;7.336;2023-03-20T16:37:19;10.40;99.90
12289;DHT22;6207;49.308;7.336;2023-03-20T16:39:47;10.30;99.90
12289;DHT22;6207;49.308;7.336;2023-03-20T16:42:27;10.30;99.90
12289;DHT22;6207;49.308;7.336;2023-03-20T16:44:56;10.30;99.90
12289;DHT22;6207;49.308;7.336;2023-03-20T16:47:32;10.30;99.90
12289;DHT22;6207;49.308;7.336;2023-03-20T16:52:35;10.20;99.90
12289;DHT22;6207;49.308;7.336;2023-03-20T16:55:03;10.30;99.90
12289;DHT22;6207;49.308;7.336;2023-03-20T16:57:34;10.20;99.90
12289;DHT22;6207;49.308;7.336;2023-03-20T17:00:17;10.20;99.90
12289;DHT22;6207;49.308;7.336;2023-03-20T17:02:49;10.20;99.90
12289;DHT22;6207;49.308;7.336;2023-03-20T17:05:19;10.20;99.90
12289;DHT22;6207;49.308;7.336;2023-03-20T17:07:50;10.20;99.90
12289;DHT22;6207;49.308;7.336;2023-03-20T17:10:24;10.10;99.90
12289;DHT22;6207;49.308;7.336;2023-03-20T17:12:52;10.10;99.90
12289;DHT22;6207;49.308;7.336;2023-03-20T17:15:23;10.10;99.90
12289;DHT22;6207;49.308;7.336;2023-03-20T17:17:50;10.10;99.90
12289;DHT22;6207;49.308;7.336;2023-03-20T17:22:45;10.10;99.90
12289;DHT22;6207;49.308;7.336;2023-03-20T17:25:12;10.10;99.90
12289;DHT22;6207;49.308;7.336;2023-03-20T17:27:39;10.10;99.90
12289;DHT22;6207;49.308;7.336;2023-03-20T17:30:25;10.10;99.90
12289;DHT22;6207;49.308;7.336;2023-03-20T17:32:52;10.10;99.90
12289;DHT22;6207;49.308;7.336;2023-03-20T17:35:19;10.10;99.90
12289;DHT22;6207;49.308;7.336;2023-03-20T17:37:46;10.10;99.90
12289;DHT22;6207;49.308;7.336;2023-03-20T17:40:19;10.00;99.90
12289;DHT22;6207;49.308;7.336;2023-03-20T17:42:47;10.00;99.90
12289;DHT22;6207;49.308;7.336;2023-03-20T17:45:15;10.10;99.90
12289;DHT22;6207;49.308;7.336;2023-03-20T17:47:46;10.00;99.90
12289;DHT22;6207;49.308;7.336;2023-03-20T17:50:21;10.00;99.90
12289;DHT22;6207;49.308;7.336;2023-03-20T17:52:53;9.90;99.90
12289;DHT22;6207;49.308;7.336;2023-03-20T17:55:20;9.90;99.90
12289;DHT22;6207;49.308;7.336;2023-03-20T17:57:47;9.80;99.90
12289;DHT22;6207;49.308;7.336;2023-03-20T18:00:20;9.90;99.90
12289;DHT22;6207;49.308;7.336;2023-03-20T18:02:47;9.80;99.90
12289;DHT22;6207;49.308;7.336;2023-03-20T18:05:14;9.80;99.90
12289;DHT22;6207;49.308;7.336;2023-03-20T18:07:41;9.80;99.90
12289;DHT22;6207;49.308;7.336;2023-03-20T18:10:19;9.80;99.90
12289;DHT22;6207;49.308;7.336;2023-03-20T18:12:48;9.70;99.90
12289;DHT22;6207;49.308;7.336;2023-03-20T18:15:15;9.70;99.90
12289;DHT22;6207;49.308;7.336;2023-03-20T18:17:42;9.60;99.90
12289;DHT22;6207;49.308;7.336;2023-03-20T18:20:25;9.60;99.90
12289;DHT22;6207;49.308;7.336;2023-03-20T18:22:53;9.60;99.90
12289;DHT22;6207;49.308;7.336;2023-03-20T18:25:20;9.60;99.90
12289;DHT22;6207;49.308;7.336;2023-03-20T18:27:48;9.60;99.90
12289;DHT22;6207;49.308;7.336;2023-03-20T18:30:17;9.50;99.90
12289;DHT22;6207;49.308;7.336;2023-03-20T18:32:44;9.60;99.90
12289;DHT22;6207;49.308;7.336;2023-03-20T18:35:12;9.40;99.90
12289;DHT22;6207;49.308;7.336;2023-03-20T18:37:39;9.30;99.90
12289;DHT22;6207;49.308;7.336;2023-03-20T18:40:20;9.30;99.90
12289;DHT22;6207;49.308;7.336;2023-03-20T18:42:47;9.10;99.90